createdAt,value
2023-03-26T00:01:08.570Z,11.26
2023-03-26T00:03:34.930Z,11.85
2023-03-26T00:06:01.474Z,11.96
2023-03-26T00:08:27.905Z,12.10
2023-03-26T00:10:54.271Z,11.61
2023-03-26T00:13:20.713Z,11.53
2023-03-26T00:15:47.291Z,11.63
2023-03-26T00:18:14.777Z,11.79
2023-03-26T00:20:41.473Z,11.82
2023-03-26T00:23:08.868Z,11.59
2023-03-26T00:25:35.271Z,11.65
2023-03-26T00:28:01.661Z,11.64
2023-03-26T00:30:28.289Z,11.70
2023-03-26T00:32:54.738Z,11.43
2023-03-26T00:35:22.348Z,11.38
2023-03-26T00:37:51.654Z,11.60
2023-03-26T00:40:18.225Z,11.38
2023-03-26T00:42:44.825Z,11.57
2023-03-26T00:45:11.292Z,11.52
2023-03-26T00:47:37.901Z,11.58
2023-03-26T00:50:04.321Z,11.56
2023-03-26T00:52:32.050Z,11.49
2023-03-26T00:54:58.811Z,11.45
2023-03-26T00:57:35.557Z,11.48
2023-03-26T01:00:16.037Z,11.48
2023-03-26T01:02:45.087Z,11.55
2023-03-26T01:05:12.099Z,11.48
2023-03-26T01:07:38.672Z,11.29
2023-03-26T01:10:05.172Z,11.69
2023-03-26T01:12:34.300Z,11.53
2023-03-26T01:15:00.795Z,11.35
2023-03-26T01:17:33.866Z,11.49
2023-03-26T01:20:12.349Z,11.50
2023-03-26T01:22:38.802Z,11.35
2023-03-26T01:25:05.462Z,11.21
2023-03-26T01:27:34.691Z,11.38
2023-03-26T01:30:01.343Z,11.27
2023-03-26T01:32:27.853Z,11.71
2023-03-26T01:34:54.300Z,11.57
2023-03-26T01:37:20.920Z,11.27
2023-03-26T01:39:49.139Z,11.38
2023-03-26T01:42:16.059Z,11.22
2023-03-26T01:44:42.999Z,11.36
2023-03-26T01:47:09.377Z,11.37
2023-03-26T01:49:36.392Z,11.23
2023-03-26T01:52:02.768Z,11.14
2023-03-26T01:54:29.187Z,11.14
2023-03-26T01:56:57.017Z,11.10
2023-03-26T01:59:23.466Z,11.09
2023-03-26T02:01:49.895Z,11.13
2023-03-26T02:04:16.284Z,11.43
2023-03-26T02:06:42.688Z,11.36
2023-03-26T02:09:09.165Z,11.31
2023-03-26T02:11:36.161Z,11.52
2023-03-26T02:14:02.690Z,11.62
2023-03-26T02:16:29.111Z,11.64
2023-03-26T02:18:56.015Z,11.63
2023-03-26T02:21:22.638Z,11.73
2023-03-26T02:23:50.724Z,11.97
2023-03-26T02:26:17.618Z,11.89
2023-03-26T02:29:06.906Z,11.85
2023-03-26T02:31:35.897Z,11.92
2023-03-26T02:34:02.350Z,11.82
2023-03-26T02:36:31.931Z,11.87
2023-03-26T02:39:01.416Z,11.98
2023-03-26T02:41:31.311Z,11.81
2023-03-26T02:44:01.631Z,11.77
2023-03-26T02:46:50.712Z,11.50
2023-03-26T02:49:37.057Z,11.68
2023-03-26T02:52:06.541Z,11.50
2023-03-26T02:54:35.048Z,11.67
2023-03-26T02:57:21.701Z,11.34
2023-03-26T02:59:52.741Z,11.30
2023-03-26T03:02:39.818Z,11.42
2023-03-26T03:05:26.719Z,11.48
2023-03-26T03:08:11.183Z,11.27
2023-03-26T03:10:43.815Z,11.42
2023-03-26T03:13:29.780Z,11.26
2023-03-26T03:15:56.433Z,11.33
2023-03-26T03:18:23.203Z,11.12
2023-03-26T03:20:49.932Z,11.20
2023-03-26T03:23:16.361Z,11.32
2023-03-26T03:25:42.761Z,11.35
2023-03-26T03:28:09.211Z,11.28
2023-03-26T03:30:35.678Z,11.14
2023-03-26T03:33:13.078Z,11.22
2023-03-26T03:35:40.101Z,11.17
2023-03-26T03:38:06.648Z,11.17
2023-03-26T03:40:42.587Z,11.13
2023-03-26T03:43:09.013Z,11.12
2023-03-26T03:45:43.524Z,11.37
2023-03-26T03:48:18.887Z,11.43
2023-03-26T03:50:46.918Z,11.41
2023-03-26T03:53:26.297Z,11.03
2023-03-26T03:55:54.782Z,11.10
2023-03-26T03:58:25.181Z,11.12
2023-03-26T04:01:00.764Z,11.19
2023-03-26T04:03:46.518Z,11.23
2023-03-26T04:06:18.859Z,11.45
2023-03-26T04:08:49.975Z,11.39
2023-03-26T04:11:16.637Z,11.42
2023-03-26T04:14:12.017Z,11.46
2023-03-26T04:16:49.344Z,11.26
2023-03-26T04:19:15.799Z,11.87
2023-03-26T04:21:42.855Z,11.52
2023-03-26T04:24:09.665Z,11.53
2023-03-26T04:27:02.067Z,11.73
2023-03-26T04:29:34.598Z,11.91
2023-03-26T04:32:06.452Z,11.99
2023-03-26T04:34:33.054Z,11.49
2023-03-26T04:37:09.578Z,11.29
2023-03-26T04:39:44.904Z,11.28
2023-03-26T04:42:37.666Z,11.25
2023-03-26T04:45:14.748Z,11.62
2023-03-26T04:47:46.600Z,11.60
2023-03-26T04:50:13.482Z,11.73
2023-03-26T04:52:42.540Z,11.84
2023-03-26T04:55:42.739Z,11.68
2023-03-26T04:58:17.596Z,11.93
2023-03-26T05:00:52.760Z,11.48
2023-03-26T05:03:20.934Z,11.40
2023-03-26T05:05:49.673Z,11.67
2023-03-26T05:08:16.290Z,11.93
2023-03-26T05:10:42.718Z,11.63
2023-03-26T05:13:13.910Z,11.41
2023-03-26T05:15:46.113Z,11.44
2023-03-26T05:18:25.868Z,11.17
2023-03-26T05:20:53.410Z,11.40
2023-03-26T05:23:20.482Z,11.43
2023-03-26T05:25:58.216Z,11.31
2023-03-26T05:28:26.676Z,11.24
2023-03-26T05:30:57.219Z,11.45
2023-03-26T05:33:25.924Z,10.99
2023-03-26T05:36:00.966Z,11.12
2023-03-26T05:38:28.927Z,11.32
2023-03-26T05:40:56.328Z,11.21
2023-03-26T05:43:22.832Z,11.21
2023-03-26T05:46:00.356Z,11.33
2023-03-26T05:48:30.241Z,11.21
2023-03-26T05:50:57.240Z,11.18
2023-03-26T05:53:26.240Z,11.40
2023-03-26T05:56:10.890Z,11.41
2023-03-26T05:59:12.461Z,11.72
2023-03-26T06:02:17.237Z,11.19
2023-03-26T06:05:15.977Z,11.31
2023-03-26T06:08:11.425Z,11.11
2023-03-26T06:10:39.350Z,11.45
2023-03-26T06:13:06.077Z,11.13
2023-03-26T06:15:35.536Z,11.20
2023-03-26T06:18:22.950Z,11.02
2023-03-26T06:20:59.418Z,11.10
2023-03-26T06:23:39.849Z,11.11
2023-03-26T06:26:29.424Z,11.12
2023-03-26T06:29:10.412Z,11.25
2023-03-26T06:31:55.402Z,11.19
2023-03-26T06:34:25.893Z,11.63
2023-03-26T06:36:54.212Z,11.41
2023-03-26T06:39:21.657Z,11.68
2023-03-26T06:42:03.937Z,11.52
2023-03-26T06:44:53.326Z,11.35
2023-03-26T06:47:42.895Z,11.55
2023-03-26T06:50:28.035Z,11.46
2023-03-26T06:53:17.292Z,11.45
2023-03-26T06:56:12.809Z,11.46
2023-03-26T06:59:08.438Z,11.48
2023-03-26T07:01:53.558Z,11.49
2023-03-26T07:04:38.334Z,11.91
2023-03-26T07:07:24.800Z,11.65
2023-03-26T07:10:17.126Z,11.76
2023-03-26T07:13:01.018Z,11.53
2023-03-26T07:15:33.160Z,11.51
2023-03-26T07:18:08.737Z,11.63
2023-03-26T07:20:36.751Z,11.39
2023-03-26T07:23:03.269Z,11.84
2023-03-26T07:25:44.795Z,11.39
2023-03-26T07:29:05.012Z,11.47
2023-03-26T07:31:38.102Z,11.68
2023-03-26T07:34:22.677Z,12.26
2023-03-26T07:37:12.535Z,11.96
2023-03-26T07:40:07.994Z,11.55
2023-03-26T07:42:53.052Z,11.60
2023-03-26T07:45:45.583Z,11.43
2023-03-26T07:48:30.760Z,11.68
2023-03-26T07:51:07.003Z,11.72
2023-03-26T07:53:49.264Z,11.79
2023-03-26T07:56:58.052Z,11.77
2023-03-26T07:59:31.118Z,11.74
2023-03-26T08:02:22.371Z,11.76
2023-03-26T08:04:58.591Z,12.01
2023-03-26T08:07:45.209Z,11.83
2023-03-26T08:10:20.621Z,12.53
2023-03-26T08:13:13.134Z,12.40
2023-03-26T08:15:39.684Z,12.13
2023-03-26T08:18:06.403Z,12.36
2023-03-26T08:20:34.230Z,12.14
2023-03-26T08:23:02.150Z,12.08
2023-03-26T08:25:33.024Z,12.52
2023-03-26T08:27:59.470Z,12.19
2023-03-26T08:30:26.014Z,11.97
2023-03-26T08:32:52.554Z,11.95
2023-03-26T08:35:19.181Z,12.34
2023-03-26T08:37:46.456Z,12.49
2023-03-26T08:40:13.607Z,12.06
2023-03-26T08:42:40.183Z,12.02
2023-03-26T08:45:06.556Z,12.01
2023-03-26T08:47:32.900Z,11.66
2023-03-26T08:49:59.314Z,11.98
2023-03-26T08:52:25.724Z,11.95
2023-03-26T08:54:52.178Z,11.94
2023-03-26T08:57:18.924Z,12.09
2023-03-26T08:59:45.294Z,12.10
2023-03-26T09:02:11.988Z,12.02
2023-03-26T09:04:39.494Z,12.04
2023-03-26T09:07:06.945Z,11.84
2023-03-26T09:09:33.915Z,11.87
2023-03-26T09:12:00.282Z,12.03
2023-03-26T09:14:28.141Z,11.79
2023-03-26T09:16:54.544Z,11.87
2023-03-26T09:19:21.401Z,11.73
2023-03-26T09:21:47.857Z,11.76
2023-03-26T09:24:14.251Z,11.99
2023-03-26T09:26:40.600Z,12.10
2023-03-26T09:29:07.027Z,11.70
2023-03-26T09:31:33.593Z,11.84
2023-03-26T09:34:00.417Z,12.17
2023-03-26T09:36:27.242Z,11.64
2023-03-26T09:38:54.640Z,11.80
2023-03-26T09:41:23.738Z,11.83
2023-03-26T09:43:50.446Z,11.91
2023-03-26T09:46:16.875Z,11.78
2023-03-26T09:48:43.321Z,11.81
2023-03-26T09:51:09.669Z,11.33
2023-03-26T09:53:37.306Z,12.00
2023-03-26T09:56:04.722Z,12.17
2023-03-26T09:58:31.221Z,11.89
2023-03-26T10:01:00.810Z,11.94
2023-03-26T10:03:28.123Z,11.95
2023-03-26T10:05:54.845Z,12.15
2023-03-26T10:08:21.790Z,11.73
2023-03-26T10:10:48.172Z,12.01
2023-03-26T10:13:15.243Z,12.19
2023-03-26T10:15:41.632Z,12.02
2023-03-26T10:18:27.678Z,11.83
2023-03-26T10:20:54.642Z,12.21
2023-03-26T10:23:22.261Z,12.31
2023-03-26T10:25:48.707Z,11.98
2023-03-26T10:28:16.390Z,12.39
2023-03-26T10:30:44.739Z,11.80
2023-03-26T10:33:11.381Z,11.46
2023-03-26T10:35:38.195Z,11.64
2023-03-26T10:38:04.791Z,12.16
2023-03-26T10:40:31.569Z,11.94
2023-03-26T10:42:57.987Z,11.90
2023-03-26T10:45:24.364Z,11.82
2023-03-26T10:47:50.827Z,11.98
2023-03-26T10:50:22.915Z,11.71
2023-03-26T10:52:50.393Z,12.01
2023-03-26T10:55:16.950Z,12.50
2023-03-26T10:57:43.290Z,11.99
2023-03-26T11:00:09.708Z,12.28
2023-03-26T11:02:36.617Z,12.07
2023-03-26T11:05:03.079Z,12.38
2023-03-26T11:07:29.561Z,12.40
2023-03-26T11:09:55.917Z,12.44
2023-03-26T11:12:26.084Z,12.65
2023-03-26T11:14:54.997Z,12.08
2023-03-26T11:17:40.825Z,12.40
2023-03-26T11:20:08.239Z,12.28
2023-03-26T11:22:34.680Z,12.54
2023-03-26T11:25:01.621Z,12.73
2023-03-26T11:27:28.864Z,12.76
2023-03-26T11:29:55.307Z,12.47
2023-03-26T11:32:22.250Z,12.30
2023-03-26T11:34:48.836Z,12.47
2023-03-26T11:37:15.283Z,12.28
2023-03-26T11:39:41.670Z,12.16
2023-03-26T11:42:08.094Z,12.37
2023-03-26T11:44:43.470Z,11.99
2023-03-26T11:47:10.507Z,12.46
2023-03-26T11:49:39.355Z,11.85
2023-03-26T11:52:07.540Z,12.32
2023-03-26T11:54:33.907Z,12.04
2023-03-26T11:57:05.595Z,12.20
2023-03-26T11:59:37.029Z,12.16
2023-03-26T12:02:05.811Z,12.01
2023-03-26T12:04:33.604Z,11.81
2023-03-26T12:07:00.054Z,11.40
2023-03-26T12:09:26.962Z,11.41
2023-03-26T12:11:53.687Z,11.30
2023-03-26T12:14:20.197Z,11.65
2023-03-26T12:16:46.912Z,11.32
2023-03-26T12:19:13.334Z,11.15
2023-03-26T12:21:39.734Z,11.64
2023-03-26T12:24:07.135Z,11.15
2023-03-26T12:26:37.065Z,10.95
2023-03-26T12:29:03.564Z,11.27
2023-03-26T12:31:30.354Z,11.46
2023-03-26T12:33:58.623Z,11.49
2023-03-26T12:36:26.690Z,11.53
2023-03-26T12:39:42.786Z,12.06
2023-03-26T12:44:47.834Z,11.46
2023-03-26T12:44:55.186Z,12.14
2023-03-26T12:48:00.156Z,11.58
2023-03-26T12:49:59.131Z,11.40
2023-03-26T12:52:25.607Z,11.31
2023-03-26T12:54:52.745Z,11.40
2023-03-26T12:57:20.287Z,11.48
2023-03-26T12:59:46.714Z,11.90
2023-03-26T13:02:13.176Z,11.73
2023-03-26T13:04:39.652Z,11.29
2023-03-26T13:07:06.400Z,11.86
2023-03-26T13:09:32.917Z,12.24
2023-03-26T13:11:59.253Z,11.83
2023-03-26T13:14:25.610Z,11.62
2023-03-26T13:16:51.954Z,11.75
2023-03-26T13:19:19.292Z,11.54
2023-03-26T13:21:46.695Z,11.29
2023-03-26T13:24:13.031Z,11.44
2023-03-26T13:26:39.415Z,11.69
2023-03-26T13:29:06.012Z,11.80
2023-03-26T13:31:32.480Z,11.74
2023-03-26T13:33:58.913Z,11.65
2023-03-26T13:36:25.588Z,11.87
2023-03-26T13:38:58.625Z,11.67
2023-03-26T13:41:26.012Z,11.87
2023-03-26T13:43:52.430Z,11.85
2023-03-26T13:46:19.812Z,11.76
2023-03-26T13:48:46.944Z,11.75
2023-03-26T13:51:13.289Z,11.96
2023-03-26T13:53:40.134Z,11.68
2023-03-26T13:56:06.514Z,12.17
2023-03-26T13:58:34.451Z,12.33
2023-03-26T14:01:01.927Z,12.57
2023-03-26T14:03:29.018Z,11.95
2023-03-26T14:05:55.455Z,12.14
2023-03-26T14:08:21.807Z,12.15
2023-03-26T14:10:48.175Z,11.92
2023-03-26T14:13:14.597Z,11.73
2023-03-26T14:15:40.951Z,11.77
2023-03-26T14:18:07.490Z,11.50
2023-03-26T14:20:33.968Z,11.31
2023-03-26T14:23:00.544Z,11.37
2023-03-26T14:25:27.069Z,11.25
2023-03-26T14:27:53.462Z,11.42
2023-03-26T14:30:20.086Z,11.73
2023-03-26T14:32:46.533Z,11.62
2023-03-26T14:35:12.947Z,11.11
2023-03-26T14:37:39.353Z,11.37
2023-03-26T14:40:12.870Z,11.47
2023-03-26T14:42:39.404Z,11.26
2023-03-26T14:45:05.833Z,10.97
2023-03-26T14:47:32.296Z,10.72
2023-03-26T14:49:58.742Z,10.69
2023-03-26T14:52:27.274Z,10.72
2023-03-26T14:54:53.810Z,10.59
2023-03-26T14:57:20.374Z,10.75
2023-03-26T14:59:47.248Z,10.73
2023-03-26T15:02:13.832Z,10.53
2023-03-26T15:04:40.377Z,10.87
2023-03-26T15:07:06.825Z,11.12
2023-03-26T15:09:33.254Z,10.81
2023-03-26T15:12:13.116Z,10.71
2023-03-26T15:14:39.833Z,11.29
2023-03-26T15:17:08.205Z,11.40
2023-03-26T15:19:34.565Z,11.06
2023-03-26T15:22:00.987Z,11.18
2023-03-26T15:24:27.574Z,10.48
2023-03-26T15:26:53.951Z,10.54
2023-03-26T15:29:21.519Z,10.73
2023-03-26T15:31:47.963Z,10.77
2023-03-26T15:34:14.298Z,10.92
2023-03-26T15:36:41.392Z,10.71
2023-03-26T15:39:07.920Z,10.68
2023-03-26T15:41:34.599Z,10.51
2023-03-26T15:44:22.605Z,10.43
2023-03-26T15:46:47.831Z,10.27
2023-03-26T15:49:16.475Z,10.33
2023-03-26T15:51:46.897Z,10.48
2023-03-26T15:54:14.215Z,10.31
2023-03-26T15:56:40.636Z,10.28
2023-03-26T15:59:07.540Z,10.21
2023-03-26T16:01:34.120Z,10.54
2023-03-26T16:04:00.564Z,10.46
2023-03-26T16:06:28.323Z,10.57
2023-03-26T16:08:54.793Z,10.61
2023-03-26T16:11:21.223Z,10.29
2023-03-26T16:13:47.618Z,10.35
2023-03-26T16:16:14.463Z,10.14
2023-03-26T16:18:41.157Z,10.37
2023-03-26T16:21:08.933Z,9.94
2023-03-26T16:23:55.253Z,9.92
2023-03-26T16:26:21.946Z,10.01
2023-03-26T16:28:48.937Z,9.93
2023-03-26T16:31:35.709Z,10.01
2023-03-26T16:34:01.631Z,9.64
2023-03-26T16:36:30.943Z,10.10
2023-03-26T16:38:57.354Z,9.93
2023-03-26T16:41:23.733Z,9.94
2023-03-26T16:43:50.305Z,9.79
2023-03-26T16:46:16.718Z,10.00
2023-03-26T16:48:43.203Z,9.77
2023-03-26T16:51:10.278Z,10.42
2023-03-26T16:53:38.680Z,10.54
2023-03-26T16:56:05.476Z,10.32
2023-03-26T16:58:32.082Z,9.61
2023-03-26T17:00:59.835Z,9.83
2023-03-26T17:03:26.486Z,9.87
2023-03-26T17:05:53.674Z,10.13
2023-03-26T17:08:35.501Z,9.99
2023-03-26T17:11:03.444Z,9.86
2023-03-26T17:13:29.767Z,9.81
2023-03-26T17:15:56.117Z,9.88
2023-03-26T17:18:22.703Z,10.04
2023-03-26T17:20:49.121Z,9.87
2023-03-26T17:23:15.563Z,9.80
2023-03-26T17:25:42.159Z,9.70
2023-03-26T17:28:10.621Z,9.93
2023-03-26T17:30:37.240Z,10.16
2023-03-26T17:33:03.769Z,10.20
2023-03-26T17:35:30.225Z,9.78
2023-03-26T17:37:56.721Z,10.06
2023-03-26T17:40:23.084Z,9.87
2023-03-26T17:42:49.415Z,9.91
2023-03-26T17:45:17.126Z,10.59
2023-03-26T17:47:43.554Z,9.99
2023-03-26T17:50:09.951Z,10.19
2023-03-26T17:52:36.332Z,9.86
2023-03-26T17:55:02.949Z,9.94
2023-03-26T17:57:29.297Z,9.67
2023-03-26T17:59:55.725Z,9.75
2023-03-26T18:02:22.140Z,9.68
2023-03-26T18:04:48.698Z,9.89
2023-03-26T18:07:16.624Z,9.53
2023-03-26T18:09:43.166Z,9.83
2023-03-26T18:12:09.585Z,9.51
2023-03-26T18:14:36.046Z,9.72
2023-03-26T18:17:02.559Z,10.00
2023-03-26T18:19:28.952Z,9.08
2023-03-26T18:21:56.701Z,9.65
2023-03-26T18:24:24.454Z,9.28
2023-03-26T18:26:50.836Z,9.41
2023-03-26T18:29:18.291Z,9.44
2023-03-26T18:31:44.855Z,9.43
2023-03-26T18:34:11.344Z,9.20
2023-03-26T18:36:38.707Z,9.11
2023-03-26T18:39:05.832Z,9.69
2023-03-26T18:41:33.063Z,9.49
2023-03-26T18:43:59.425Z,9.75
2023-03-26T18:46:25.841Z,9.38
2023-03-26T18:48:53.304Z,9.33
2023-03-26T18:51:23.019Z,9.52
2023-03-26T18:53:49.614Z,9.41
2023-03-26T18:56:16.496Z,9.55
2023-03-26T18:58:44.201Z,9.65
2023-03-26T19:01:20.053Z,9.30
2023-03-26T19:03:51.680Z,9.07
2023-03-26T19:06:20.823Z,8.98
2023-03-26T19:08:47.211Z,9.50
2023-03-26T19:11:13.592Z,9.13
2023-03-26T19:13:43.083Z,9.13
2023-03-26T19:16:09.440Z,8.87
2023-03-26T19:18:36.558Z,8.93
2023-03-26T19:21:03.406Z,8.91
2023-03-26T19:23:31.649Z,9.01
2023-03-26T19:25:59.727Z,8.91
2023-03-26T19:28:26.214Z,8.80
2023-03-26T19:30:52.783Z,9.10
2023-03-26T19:33:19.356Z,8.61
2023-03-26T19:35:46.020Z,8.84
2023-03-26T19:38:12.425Z,9.21
2023-03-26T19:40:38.906Z,8.87
2023-03-26T19:43:05.576Z,9.11
2023-03-26T19:45:32.231Z,9.25
2023-03-26T19:48:12.171Z,9.21
2023-03-26T19:50:42.075Z,9.34
2023-03-26T19:53:16.173Z,9.38
2023-03-26T19:55:43.876Z,9.25
2023-03-26T19:58:10.317Z,9.47
2023-03-26T20:00:36.694Z,9.20
2023-03-26T20:03:03.413Z,8.79
2023-03-26T20:05:30.354Z,8.54
2023-03-26T20:07:57.128Z,8.89
2023-03-26T20:10:23.632Z,8.23
2023-03-26T20:12:49.964Z,8.41
2023-03-26T20:15:19.445Z,8.43
2023-03-26T20:17:46.962Z,8.14
2023-03-26T20:20:13.767Z,8.24
2023-03-26T20:22:40.499Z,8.45
2023-03-26T20:25:07.875Z,8.30
2023-03-26T20:27:34.244Z,7.76
2023-03-26T20:30:01.406Z,7.78
2023-03-26T20:32:27.968Z,7.54
2023-03-26T20:34:55.011Z,8.10
2023-03-26T20:37:21.555Z,7.94
2023-03-26T20:39:47.954Z,7.70
2023-03-26T20:42:16.017Z,7.76
2023-03-26T20:44:42.664Z,8.18
2023-03-26T20:47:09.273Z,7.86
2023-03-26T20:49:35.723Z,7.95
2023-03-26T20:52:02.683Z,8.12
2023-03-26T20:54:30.370Z,7.96
2023-03-26T20:56:58.120Z,8.00
2023-03-26T20:59:26.410Z,7.41
2023-03-26T21:01:54.259Z,7.54
2023-03-26T21:04:20.790Z,7.57
2023-03-26T21:06:47.196Z,7.67
2023-03-26T21:09:15.056Z,7.20
2023-03-26T21:11:41.725Z,7.40
2023-03-26T21:14:08.316Z,7.46
2023-03-26T21:16:34.723Z,7.96
2023-03-26T21:19:01.290Z,7.37
2023-03-26T21:21:28.142Z,7.54
2023-03-26T21:23:59.407Z,7.49
2023-03-26T21:26:25.774Z,7.35
2023-03-26T21:28:52.298Z,7.54
2023-03-26T21:31:18.825Z,7.44
2023-03-26T21:33:45.436Z,7.48
2023-03-26T21:36:12.019Z,7.42
2023-03-26T21:38:38.740Z,7.11
2023-03-26T21:41:05.245Z,7.11
2023-03-26T21:43:32.171Z,7.04
2023-03-26T21:45:58.637Z,6.99
2023-03-26T21:48:25.009Z,7.09
2023-03-26T21:50:51.390Z,7.05
2023-03-26T21:53:18.023Z,6.72
2023-03-26T21:55:44.551Z,6.75
2023-03-26T21:58:12.475Z,6.87
2023-03-26T22:00:43.433Z,6.63
2023-03-26T22:03:10.395Z,6.77
2023-03-26T22:05:36.811Z,6.61
2023-03-26T22:08:03.481Z,6.89
2023-03-26T22:10:29.840Z,6.93
2023-03-26T22:12:56.247Z,7.21
2023-03-26T22:15:22.571Z,6.80
2023-03-26T22:17:55.542Z,6.77
2023-03-26T22:20:24.222Z,6.61
2023-03-26T22:23:02.376Z,6.59
2023-03-26T22:25:29.026Z,6.61
2023-03-26T22:27:55.576Z,6.53
2023-03-26T22:30:25.473Z,6.65
2023-03-26T22:32:51.922Z,6.44
2023-03-26T22:35:18.697Z,6.38
2023-03-26T22:37:45.108Z,6.37
2023-03-26T22:40:13.507Z,6.12
2023-03-26T22:42:40.720Z,6.28
2023-03-26T22:45:09.579Z,6.43
2023-03-26T22:47:36.012Z,6.12
2023-03-26T22:50:03.142Z,6.10
2023-03-26T22:52:29.510Z,6.51
2023-03-26T22:54:57.041Z,6.38
2023-03-26T22:57:23.401Z,6.68
2023-03-26T22:59:49.769Z,6.29
2023-03-26T23:02:16.601Z,6.28
2023-03-26T23:04:43.090Z,6.44
2023-03-26T23:07:09.406Z,6.38
2023-03-26T23:09:36.620Z,6.14
2023-03-26T23:12:03.453Z,6.38
2023-03-26T23:14:32.510Z,6.24
2023-03-26T23:17:02.490Z,6.16
2023-03-26T23:19:30.675Z,6.48
2023-03-26T23:21:57.370Z,6.19
2023-03-26T23:24:26.312Z,6.28
2023-03-26T23:26:53.250Z,6.31
2023-03-26T23:29:23.440Z,6.31
2023-03-26T23:31:52.882Z,6.01
2023-03-26T23:34:20.959Z,6.02
2023-03-26T23:36:47.301Z,6.04
2023-03-26T23:39:13.680Z,5.89
2023-03-26T23:41:40.172Z,5.95
2023-03-26T23:44:06.959Z,5.98
2023-03-26T23:46:33.342Z,5.91
2023-03-26T23:49:02.477Z,6.07
2023-03-26T23:51:30.656Z,5.88
2023-03-26T23:53:59.009Z,6.07
2023-03-26T23:56:27.522Z,6.20
2023-03-26T23:58:53.943Z,6.15
